sensor_id;sensor_type;location;lat;lon;timestamp;pressure;altitude;pressure_sealevel;temperature
81657;BMP280;71067;51.482;-0.580;2023-12-07T00:01:03;101355.94;;;6.32
81657;BMP280;71067;51.482;-0.580;2023-12-07T00:03:28;101357.47;;;6.34
81657;BMP280;71067;51.482;-0.580;2023-12-07T00:05:53;101354.81;;;6.36
81657;BMP280;71067;51.482;-0.580;2023-12-07T00:08:19;101350.59;;;6.35
81657;BMP280;71067;51.482;-0.580;2023-12-07T00:10:44;101333.41;;;6.35
81657;BMP280;71067;51.482;-0.580;2023-12-07T00:13:09;101340.09;;;6.38
81657;BMP280;71067;51.482;-0.580;2023-12-07T00:15:35;101328.28;;;6.35
81657;BMP280;71067;51.482;-0.580;2023-12-07T00:18:03;101334.69;;;6.41
81657;BMP280;71067;51.482;-0.580;2023-12-07T00:20:29;101342.88;;;6.46
81657;BMP280;71067;51.482;-0.580;2023-12-07T00:22:54;101310.94;;;6.26
81657;BMP280;71067;51.482;-0.580;2023-12-07T00:25:20;101327.94;;;6.40
81657;BMP280;71067;51.482;-0.580;2023-12-07T00:27:45;101341.72;;;6.50
81657;BMP280;71067;51.482;-0.580;2023-12-07T00:30:11;101339.06;;;6.51
81657;BMP280;71067;51.482;-0.580;2023-12-07T00:32:36;101333.91;;;6.51
81657;BMP280;71067;51.482;-0.580;2023-12-07T00:35:02;101337.84;;;6.55
81657;BMP280;71067;51.482;-0.580;2023-12-07T00:37:27;101321.50;;;6.45
81657;BMP280;71067;51.482;-0.580;2023-12-07T00:39:52;101327.03;;;6.52
81657;BMP280;71067;51.482;-0.580;2023-12-07T00:42:18;101318.56;;;6.50
81657;BMP280;71067;51.482;-0.580;2023-12-07T00:44:43;101313.88;;;6.55
81657;BMP280;71067;51.482;-0.580;2023-12-07T00:47:09;101310.16;;;6.59
81657;BMP280;71067;51.482;-0.580;2023-12-07T00:49:37;101312.63;;;6.60
81657;BMP280;71067;51.482;-0.580;2023-12-07T00:52:04;101279.75;;;6.53
81657;BMP280;71067;51.482;-0.580;2023-12-07T00:54:29;101287.63;;;6.62
81657;BMP280;71067;51.482;-0.580;2023-12-07T00:56:54;101294.28;;;6.65
81657;BMP280;71067;51.482;-0.580;2023-12-07T00:59:19;101298.00;;;6.72
81657;BMP280;71067;51.482;-0.580;2023-12-07T01:01:45;101303.38;;;6.69
81657;BMP280;71067;51.482;-0.580;2023-12-07T01:04:10;101286.91;;;6.71
81657;BMP280;71067;51.482;-0.580;2023-12-07T01:06:36;101285.16;;;6.72
81657;BMP280;71067;51.482;-0.580;2023-12-07T01:09:01;101289.03;;;6.77
81657;BMP280;71067;51.482;-0.580;2023-12-07T01:11:28;101287.13;;;6.79
81657;BMP280;71067;51.482;-0.580;2023-12-07T01:13:54;101293.56;;;6.85
81657;BMP280;71067;51.482;-0.580;2023-12-07T01:16:19;101280.00;;;6.83
81657;BMP280;71067;51.482;-0.580;2023-12-07T01:18:44;101288.41;;;6.85
81657;BMP280;71067;51.482;-0.580;2023-12-07T01:21:09;101280.69;;;6.85
81657;BMP280;71067;51.482;-0.580;2023-12-07T01:23:35;101282.91;;;6.89
81657;BMP280;71067;51.482;-0.580;2023-12-07T01:26:00;101276.94;;;6.89
81657;BMP280;71067;51.482;-0.580;2023-12-07T01:28:27;101274.00;;;6.94
81657;BMP280;71067;51.482;-0.580;2023-12-07T01:30:53;101281.72;;;6.94
81657;BMP280;71067;51.482;-0.580;2023-12-07T01:33:18;101279.25;;;6.92
81657;BMP280;71067;51.482;-0.580;2023-12-07T01:35:43;101275.06;;;6.91
81657;BMP280;71067;51.482;-0.580;2023-12-07T01:38:09;101274.81;;;6.94
81657;BMP280;71067;51.482;-0.580;2023-12-07T01:40:34;101262.69;;;6.85
81657;BMP280;71067;51.482;-0.580;2023-12-07T01:42:59;101272.00;;;6.97
81657;BMP280;71067;51.482;-0.580;2023-12-07T01:45:25;101272.59;;;7.01
81657;BMP280;71067;51.482;-0.580;2023-12-07T01:47:51;101266.03;;;6.97
81657;BMP280;71067;51.482;-0.580;2023-12-07T01:50:19;101260.78;;;6.98
81657;BMP280;71067;51.482;-0.580;2023-12-07T01:52:49;101257.53;;;6.96
81657;BMP280;71067;51.482;-0.580;2023-12-07T01:55:16;101248.63;;;7.00
81657;BMP280;71067;51.482;-0.580;2023-12-07T01:57:43;101245.00;;;7.03
81657;BMP280;71067;51.482;-0.580;2023-12-07T02:00:10;101251.88;;;7.02
81657;BMP280;71067;51.482;-0.580;2023-12-07T02:02:35;101256.78;;;7.05
81657;BMP280;71067;51.482;-0.580;2023-12-07T02:05:01;101239.16;;;7.01
81657;BMP280;71067;51.482;-0.580;2023-12-07T02:07:27;101242.41;;;7.03
81657;BMP280;71067;51.482;-0.580;2023-12-07T02:09:53;101246.47;;;7.05
81657;BMP280;71067;51.482;-0.580;2023-12-07T02:12:18;101236.88;;;7.07
81657;BMP280;71067;51.482;-0.580;2023-12-07T02:14:44;101239.22;;;7.10
81657;BMP280;71067;51.482;-0.580;2023-12-07T02:17:18;101230.94;;;7.07
81657;BMP280;71067;51.482;-0.580;2023-12-07T02:20:02;101235.50;;;7.14
81657;BMP280;71067;51.482;-0.580;2023-12-07T02:22:42;101226.53;;;7.18
81657;BMP280;71067;51.482;-0.580;2023-12-07T02:25:10;101229.00;;;7.20
81657;BMP280;71067;51.482;-0.580;2023-12-07T02:27:45;101239.31;;;7.20
81657;BMP280;71067;51.482;-0.580;2023-12-07T02:30:13;101232.06;;;7.25
81657;BMP280;71067;51.482;-0.580;2023-12-07T02:32:41;101230.97;;;7.27
81657;BMP280;71067;51.482;-0.580;2023-12-07T02:35:08;101212.06;;;7.17
81657;BMP280;71067;51.482;-0.580;2023-12-07T02:37:50;101226.63;;;7.28
81657;BMP280;71067;51.482;-0.580;2023-12-07T02:40:22;101205.09;;;7.29
81657;BMP280;71067;51.482;-0.580;2023-12-07T02:42:49;101211.19;;;7.28
81657;BMP280;71067;51.482;-0.580;2023-12-07T02:45:15;101207.22;;;7.24
81657;BMP280;71067;51.482;-0.580;2023-12-07T02:47:40;101205.66;;;7.32
81657;BMP280;71067;51.482;-0.580;2023-12-07T02:50:08;101185.56;;;7.26
81657;BMP280;71067;51.482;-0.580;2023-12-07T02:52:34;101175.94;;;7.28
81657;BMP280;71067;51.482;-0.580;2023-12-07T02:54:59;101174.31;;;7.27
81657;BMP280;71067;51.482;-0.580;2023-12-07T02:57:25;101169.72;;;7.31
81657;BMP280;71067;51.482;-0.580;2023-12-07T02:59:50;101164.56;;;7.31
81657;BMP280;71067;51.482;-0.580;2023-12-07T03:02:15;101157.13;;;7.28
81657;BMP280;71067;51.482;-0.580;2023-12-07T03:04:41;101158.13;;;7.36
81657;BMP280;71067;51.482;-0.580;2023-12-07T03:07:06;101135.00;;;7.25
81657;BMP280;71067;51.482;-0.580;2023-12-07T03:09:31;101139.88;;;7.28
81657;BMP280;71067;51.482;-0.580;2023-12-07T03:11:57;101143.88;;;7.32
81657;BMP280;71067;51.482;-0.580;2023-12-07T03:14:22;101161.13;;;7.41
81657;BMP280;71067;51.482;-0.580;2023-12-07T03:16:48;101157.63;;;7.42
81657;BMP280;71067;51.482;-0.580;2023-12-07T03:19:13;101150.81;;;7.41
81657;BMP280;71067;51.482;-0.580;2023-12-07T03:21:39;101144.16;;;7.39
81657;BMP280;71067;51.482;-0.580;2023-12-07T03:24:06;101163.59;;;7.43
81657;BMP280;71067;51.482;-0.580;2023-12-07T03:26:32;101155.50;;;7.47
81657;BMP280;71067;51.482;-0.580;2023-12-07T03:28:57;101154.13;;;7.43
81657;BMP280;71067;51.482;-0.580;2023-12-07T03:31:23;101160.66;;;7.47
81657;BMP280;71067;51.482;-0.580;2023-12-07T03:33:48;101152.91;;;7.47
81657;BMP280;71067;51.482;-0.580;2023-12-07T03:36:13;101144.75;;;7.42
81657;BMP280;71067;51.482;-0.580;2023-12-07T03:38:39;101138.38;;;7.46
81657;BMP280;71067;51.482;-0.580;2023-12-07T03:41:04;101139.34;;;7.45
81657;BMP280;71067;51.482;-0.580;2023-12-07T03:43:29;101135.81;;;7.46
81657;BMP280;71067;51.482;-0.580;2023-12-07T03:45:55;101134.19;;;7.45
81657;BMP280;71067;51.482;-0.580;2023-12-07T03:48:20;101128.91;;;7.47
81657;BMP280;71067;51.482;-0.580;2023-12-07T03:50:45;101121.31;;;7.45
81657;BMP280;71067;51.482;-0.580;2023-12-07T03:53:11;101125.88;;;7.42
81657;BMP280;71067;51.482;-0.580;2023-12-07T03:55:36;101117.00;;;7.46
81657;BMP280;71067;51.482;-0.580;2023-12-07T03:58:02;101111.72;;;7.47
81657;BMP280;71067;51.482;-0.580;2023-12-07T04:00:27;101100.81;;;7.44
81657;BMP280;71067;51.482;-0.580;2023-12-07T04:02:52;101120.13;;;7.49
81657;BMP280;71067;51.482;-0.580;2023-12-07T04:05:18;101114.97;;;7.49
81657;BMP280;71067;51.482;-0.580;2023-12-07T04:07:43;101103.69;;;7.50
81657;BMP280;71067;51.482;-0.580;2023-12-07T04:10:09;101101.81;;;7.52
81657;BMP280;71067;51.482;-0.580;2023-12-07T04:12:34;101097.50;;;7.53
81657;BMP280;71067;51.482;-0.580;2023-12-07T04:14:59;101101.56;;;7.55
81657;BMP280;71067;51.482;-0.580;2023-12-07T04:17:25;101088.38;;;7.49
81657;BMP280;71067;51.482;-0.580;2023-12-07T04:19:50;101089.75;;;7.53
81657;BMP280;71067;51.482;-0.580;2023-12-07T04:22:16;101075.78;;;7.46
81657;BMP280;71067;51.482;-0.580;2023-12-07T04:24:41;101089.63;;;7.54
81657;BMP280;71067;51.482;-0.580;2023-12-07T04:27:06;101088.69;;;7.55
81657;BMP280;71067;51.482;-0.580;2023-12-07T04:29:31;101074.16;;;7.54
81657;BMP280;71067;51.482;-0.580;2023-12-07T04:31:57;101083.28;;;7.58
81657;BMP280;71067;51.482;-0.580;2023-12-07T04:34:22;101078.16;;;7.58
81657;BMP280;71067;51.482;-0.580;2023-12-07T04:36:47;101077.47;;;7.56
81657;BMP280;71067;51.482;-0.580;2023-12-07T04:39:13;101072.03;;;7.59
81657;BMP280;71067;51.482;-0.580;2023-12-07T04:41:38;101068.66;;;7.59
81657;BMP280;71067;51.482;-0.580;2023-12-07T04:44:04;101064.31;;;7.59
81657;BMP280;71067;51.482;-0.580;2023-12-07T04:46:29;101050.19;;;7.54
81657;BMP280;71067;51.482;-0.580;2023-12-07T04:48:54;101053.91;;;7.61
81657;BMP280;71067;51.482;-0.580;2023-12-07T04:51:20;101040.69;;;7.54
81657;BMP280;71067;51.482;-0.580;2023-12-07T04:53:45;101046.16;;;7.61
81657;BMP280;71067;51.482;-0.580;2023-12-07T04:56:11;101040.84;;;7.62
81657;BMP280;71067;51.482;-0.580;2023-12-07T04:58:36;101039.63;;;7.57
81657;BMP280;71067;51.482;-0.580;2023-12-07T05:01:01;101022.41;;;7.57
81657;BMP280;71067;51.482;-0.580;2023-12-07T05:03:27;101032.19;;;7.63
81657;BMP280;71067;51.482;-0.580;2023-12-07T05:05:53;101031.94;;;7.66
81657;BMP280;71067;51.482;-0.580;2023-12-07T05:08:18;101024.31;;;7.65
81657;BMP280;71067;51.482;-0.580;2023-12-07T05:10:44;101006.94;;;7.57
81657;BMP280;71067;51.482;-0.580;2023-12-07T05:13:09;101001.78;;;7.57
81657;BMP280;71067;51.482;-0.580;2023-12-07T05:15:34;101018.81;;;7.70
81657;BMP280;71067;51.482;-0.580;2023-12-07T05:17:59;101022.44;;;7.67
81657;BMP280;71067;51.482;-0.580;2023-12-07T05:20:25;101004.53;;;7.65
81657;BMP280;71067;51.482;-0.580;2023-12-07T05:22:52;101002.38;;;7.71
81657;BMP280;71067;51.482;-0.580;2023-12-07T05:25:18;101010.75;;;7.72
81657;BMP280;71067;51.482;-0.580;2023-12-07T05:27:44;100998.88;;;7.72
81657;BMP280;71067;51.482;-0.580;2023-12-07T05:30:09;100999.81;;;7.71
81657;BMP280;71067;51.482;-0.580;2023-12-07T05:32:35;101007.81;;;7.77
81657;BMP280;71067;51.482;-0.580;2023-12-07T05:35:00;101003.75;;;7.75
81657;BMP280;71067;51.482;-0.580;2023-12-07T05:37:26;100986.09;;;7.70
81657;BMP280;71067;51.482;-0.580;2023-12-07T05:39:51;100985.72;;;7.75
81657;BMP280;71067;51.482;-0.580;2023-12-07T05:42:16;100980.28;;;7.78
81657;BMP280;71067;51.482;-0.580;2023-12-07T05:44:41;100968.47;;;7.75
81657;BMP280;71067;51.482;-0.580;2023-12-07T05:47:07;100969.59;;;7.82
81657;BMP280;71067;51.482;-0.580;2023-12-07T05:49:33;100967.84;;;7.83
81657;BMP280;71067;51.482;-0.580;2023-12-07T05:51:58;100960.38;;;7.89
81657;BMP280;71067;51.482;-0.580;2023-12-07T05:54:24;100957.94;;;7.88
81657;BMP280;71067;51.482;-0.580;2023-12-07T05:56:49;100946.22;;;7.84
81657;BMP280;71067;51.482;-0.580;2023-12-07T05:59:14;100956.97;;;7.89
81657;BMP280;71067;51.482;-0.580;2023-12-07T06:01:40;100949.81;;;7.83
81657;BMP280;71067;51.482;-0.580;2023-12-07T06:04:08;100962.13;;;7.89
81657;BMP280;71067;51.482;-0.580;2023-12-07T06:06:34;100963.75;;;7.90
81657;BMP280;71067;51.482;-0.580;2023-12-07T06:08:59;100979.91;;;7.92
81657;BMP280;71067;51.482;-0.580;2023-12-07T06:11:25;100986.97;;;7.90
81657;BMP280;71067;51.482;-0.580;2023-12-07T06:13:50;100983.97;;;7.94
81657;BMP280;71067;51.482;-0.580;2023-12-07T06:16:15;100959.69;;;7.87
81657;BMP280;71067;51.482;-0.580;2023-12-07T06:18:42;100972.72;;;7.95
81657;BMP280;71067;51.482;-0.580;2023-12-07T06:21:08;100969.59;;;7.92
81657;BMP280;71067;51.482;-0.580;2023-12-07T06:23:33;100965.25;;;7.92
81657;BMP280;71067;51.482;-0.580;2023-12-07T06:25:59;100963.50;;;7.93
81657;BMP280;71067;51.482;-0.580;2023-12-07T06:28:24;100965.91;;;7.94
81657;BMP280;71067;51.482;-0.580;2023-12-07T06:30:50;100970.41;;;7.92
81657;BMP280;71067;51.482;-0.580;2023-12-07T06:33:15;100964.72;;;7.98
81657;BMP280;71067;51.482;-0.580;2023-12-07T06:35:40;100959.97;;;7.94
81657;BMP280;71067;51.482;-0.580;2023-12-07T06:38:06;100965.81;;;7.96
81657;BMP280;71067;51.482;-0.580;2023-12-07T06:40:31;100959.69;;;7.97
81657;BMP280;71067;51.482;-0.580;2023-12-07T06:42:56;100951.94;;;7.97
81657;BMP280;71067;51.482;-0.580;2023-12-07T06:45:22;100951.94;;;7.97
81657;BMP280;71067;51.482;-0.580;2023-12-07T06:47:47;100922.41;;;7.82
81657;BMP280;71067;51.482;-0.580;2023-12-07T06:50:13;100937.31;;;7.97
81657;BMP280;71067;51.482;-0.580;2023-12-07T06:52:39;100928.38;;;7.92
81657;BMP280;71067;51.482;-0.580;2023-12-07T06:55:05;100929.44;;;7.99
81657;BMP280;71067;51.482;-0.580;2023-12-07T06:57:30;100922.91;;;7.95
81657;BMP280;71067;51.482;-0.580;2023-12-07T06:59:56;100927.56;;;8.01
81657;BMP280;71067;51.482;-0.580;2023-12-07T07:02:21;100925.09;;;7.99
81657;BMP280;71067;51.482;-0.580;2023-12-07T07:04:48;100920.91;;;7.98
81657;BMP280;71067;51.482;-0.580;2023-12-07T07:07:17;100919.81;;;8.01
81657;BMP280;71067;51.482;-0.580;2023-12-07T07:09:42;100914.66;;;8.01
81657;BMP280;71067;51.482;-0.580;2023-12-07T07:12:08;100902.31;;;7.95
81657;BMP280;71067;51.482;-0.580;2023-12-07T07:14:33;100920.75;;;8.00
81657;BMP280;71067;51.482;-0.580;2023-12-07T07:16:59;100931.47;;;8.05
81657;BMP280;71067;51.482;-0.580;2023-12-07T07:19:25;100925.50;;;8.04
81657;BMP280;71067;51.482;-0.580;2023-12-07T07:21:50;100918.56;;;8.05
81657;BMP280;71067;51.482;-0.580;2023-12-07T07:24:15;100920.22;;;8.06
81657;BMP280;71067;51.482;-0.580;2023-12-07T07:26:41;100903.09;;;8.05
81657;BMP280;71067;51.482;-0.580;2023-12-07T07:29:06;100901.75;;;8.10
81657;BMP280;71067;51.482;-0.580;2023-12-07T07:31:32;100887.94;;;8.02
81657;BMP280;71067;51.482;-0.580;2023-12-07T07:33:57;100888.72;;;8.12
81657;BMP280;71067;51.482;-0.580;2023-12-07T07:36:22;100885.22;;;8.13
81657;BMP280;71067;51.482;-0.580;2023-12-07T07:38:48;100878.72;;;8.09
81657;BMP280;71067;51.482;-0.580;2023-12-07T07:41:13;100876.53;;;8.14
81657;BMP280;71067;51.482;-0.580;2023-12-07T07:43:39;100884.91;;;8.16
81657;BMP280;71067;51.482;-0.580;2023-12-07T07:46:05;100877.03;;;8.17
81657;BMP280;71067;51.482;-0.580;2023-12-07T07:48:30;100867.03;;;8.14
81657;BMP280;71067;51.482;-0.580;2023-12-07T07:50:57;100867.81;;;8.15
81657;BMP280;71067;51.482;-0.580;2023-12-07T07:53:22;100863.22;;;8.18
81657;BMP280;71067;51.482;-0.580;2023-12-07T07:55:48;100861.06;;;8.14
81657;BMP280;71067;51.482;-0.580;2023-12-07T07:58:13;100857.09;;;8.19
81657;BMP280;71067;51.482;-0.580;2023-12-07T08:00:38;100863.31;;;8.17
81657;BMP280;71067;51.482;-0.580;2023-12-07T08:03:04;100856.41;;;8.17
81657;BMP280;71067;51.482;-0.580;2023-12-07T08:05:29;100855.91;;;8.14
81657;BMP280;71067;51.482;-0.580;2023-12-07T08:07:55;100854.91;;;8.15
81657;BMP280;71067;51.482;-0.580;2023-12-07T08:10:20;100859.00;;;8.17
81657;BMP280;71067;51.482;-0.580;2023-12-07T08:12:45;100864.97;;;8.18
81657;BMP280;71067;51.482;-0.580;2023-12-07T08:15:11;100845.59;;;8.14
81657;BMP280;71067;51.482;-0.580;2023-12-07T08:17:38;100840.13;;;8.17
81657;BMP280;71067;51.482;-0.580;2023-12-07T08:20:05;100849.94;;;8.13
81657;BMP280;71067;51.482;-0.580;2023-12-07T08:22:31;100857.09;;;8.19
81657;BMP280;71067;51.482;-0.580;2023-12-07T08:24:56;100834.97;;;8.17
81657;BMP280;71067;51.482;-0.580;2023-12-07T08:27:21;100840.41;;;8.23
81657;BMP280;71067;51.482;-0.580;2023-12-07T08:29:47;100823.97;;;8.15
81657;BMP280;71067;51.482;-0.580;2023-12-07T08:32:12;100832.28;;;8.18
81657;BMP280;71067;51.482;-0.580;2023-12-07T08:34:37;100828.47;;;8.22
81657;BMP280;71067;51.482;-0.580;2023-12-07T08:37:03;100820.97;;;8.19
81657;BMP280;71067;51.482;-0.580;2023-12-07T08:39:28;100820.72;;;8.22
81657;BMP280;71067;51.482;-0.580;2023-12-07T08:41:54;100829.13;;;8.34
81657;BMP280;71067;51.482;-0.580;2023-12-07T08:44:19;100815.66;;;8.30
81657;BMP280;71067;51.482;-0.580;2023-12-07T08:46:45;100810.41;;;8.32
81657;BMP280;71067;51.482;-0.580;2023-12-07T08:49:10;100808.47;;;8.34
81657;BMP280;71067;51.482;-0.580;2023-12-07T08:51:36;100806.53;;;8.36
81657;BMP280;71067;51.482;-0.580;2023-12-07T08:54:01;100799.81;;;8.35
81657;BMP280;71067;51.482;-0.580;2023-12-07T08:56:27;100789.75;;;8.32
81657;BMP280;71067;51.482;-0.580;2023-12-07T08:58:52;100793.13;;;8.42
81657;BMP280;71067;51.482;-0.580;2023-12-07T09:01:17;100787.84;;;8.34
81657;BMP280;71067;51.482;-0.580;2023-12-07T09:03:43;100793.94;;;8.42
81657;BMP280;71067;51.482;-0.580;2023-12-07T09:06:08;100785.22;;;8.43
81657;BMP280;71067;51.482;-0.580;2023-12-07T09:08:33;100789.81;;;8.49
81657;BMP280;71067;51.482;-0.580;2023-12-07T09:10:59;100782.75;;;8.52
81657;BMP280;71067;51.482;-0.580;2023-12-07T09:13:24;100780.44;;;8.48
81657;BMP280;71067;51.482;-0.580;2023-12-07T09:15:50;100757.38;;;8.47
81657;BMP280;71067;51.482;-0.580;2023-12-07T09:18:15;100773.91;;;8.54
81657;BMP280;71067;51.482;-0.580;2023-12-07T09:20:40;100766.53;;;8.59
81657;BMP280;71067;51.482;-0.580;2023-12-07T09:23:12;100763.28;;;8.57
81657;BMP280;71067;51.482;-0.580;2023-12-07T09:25:40;100756.47;;;8.56
81657;BMP280;71067;51.482;-0.580;2023-12-07T09:28:06;100745.06;;;8.59
81657;BMP280;71067;51.482;-0.580;2023-12-07T09:30:31;100744.28;;;8.58
81657;BMP280;71067;51.482;-0.580;2023-12-07T09:32:59;100731.91;;;8.62
81657;BMP280;71067;51.482;-0.580;2023-12-07T09:35:24;100726.63;;;8.63
81657;BMP280;71067;51.482;-0.580;2023-12-07T09:37:49;100718.88;;;8.63
81657;BMP280;71067;51.482;-0.580;2023-12-07T09:40:16;100715.97;;;8.66
81657;BMP280;71067;51.482;-0.580;2023-12-07T09:42:42;100715.97;;;8.66
81657;BMP280;71067;51.482;-0.580;2023-12-07T09:45:08;100706.34;;;8.68
81657;BMP280;71067;51.482;-0.580;2023-12-07T09:47:34;100716.22;;;8.73
81657;BMP280;71067;51.482;-0.580;2023-12-07T09:50:01;100723.03;;;8.74
81657;BMP280;71067;51.482;-0.580;2023-12-07T09:52:27;100722.31;;;8.72
81657;BMP280;71067;51.482;-0.580;2023-12-07T09:54:54;100702.09;;;8.67
81657;BMP280;71067;51.482;-0.580;2023-12-07T09:57:20;100713.88;;;8.79
81657;BMP280;71067;51.482;-0.580;2023-12-07T09:59:46;100709.50;;;8.80
81657;BMP280;71067;51.482;-0.580;2023-12-07T10:02:11;100711.56;;;8.76
81657;BMP280;71067;51.482;-0.580;2023-12-07T10:04:36;100714.81;;;8.78
81657;BMP280;71067;51.482;-0.580;2023-12-07T10:07:02;100725.53;;;8.83
81657;BMP280;71067;51.482;-0.580;2023-12-07T10:09:27;100717.78;;;8.83
81657;BMP280;71067;51.482;-0.580;2023-12-07T10:12:10;100707.47;;;8.83
81657;BMP280;71067;51.482;-0.580;2023-12-07T10:14:37;100698.78;;;8.84
81657;BMP280;71067;51.482;-0.580;2023-12-07T10:17:03;100693.72;;;8.83
81657;BMP280;71067;51.482;-0.580;2023-12-07T10:19:29;100694.91;;;8.88
81657;BMP280;71067;51.482;-0.580;2023-12-07T10:21:54;100691.38;;;8.89
81657;BMP280;71067;51.482;-0.580;2023-12-07T10:24:21;100682.66;;;8.90
81657;BMP280;71067;51.482;-0.580;2023-12-07T10:26:48;100661.34;;;8.88
81657;BMP280;71067;51.482;-0.580;2023-12-07T10:29:14;100666.88;;;8.93
81657;BMP280;71067;51.482;-0.580;2023-12-07T10:31:42;100651.31;;;8.85
81657;BMP280;71067;51.482;-0.580;2023-12-07T10:34:09;100648.97;;;8.92
81657;BMP280;71067;51.482;-0.580;2023-12-07T10:36:34;100646.88;;;8.95
81657;BMP280;71067;51.482;-0.580;2023-12-07T10:38:59;100639.13;;;8.95
81657;BMP280;71067;51.482;-0.580;2023-12-07T10:41:25;100639.94;;;8.96
81657;BMP280;71067;51.482;-0.580;2023-12-07T10:44:00;100640.59;;;8.98
81657;BMP280;71067;51.482;-0.580;2023-12-07T10:46:26;100642.78;;;9.02
81657;BMP280;71067;51.482;-0.580;2023-12-07T10:48:55;100634.16;;;8.94
81657;BMP280;71067;51.482;-0.580;2023-12-07T10:51:31;100647.56;;;8.97
81657;BMP280;71067;51.482;-0.580;2023-12-07T10:54:01;100649.97;;;8.99
81657;BMP280;71067;51.482;-0.580;2023-12-07T10:56:29;100639.13;;;8.95
81657;BMP280;71067;51.482;-0.580;2023-12-07T10:58:56;100648.00;;;9.10
81657;BMP280;71067;51.482;-0.580;2023-12-07T11:01:23;100629.38;;;9.07
81657;BMP280;71067;51.482;-0.580;2023-12-07T11:03:52;100625.03;;;9.07
81657;BMP280;71067;51.482;-0.580;2023-12-07T11:06:18;100632.03;;;9.15
81657;BMP280;71067;51.482;-0.580;2023-12-07T11:09:05;100622.63;;;9.14
81657;BMP280;71067;51.482;-0.580;2023-12-07T11:14:08;100617.47;;;9.14
81657;BMP280;71067;51.482;-0.580;2023-12-07T11:16:40;100608.16;;;9.13
81657;BMP280;71067;51.482;-0.580;2023-12-07T11:19:42;100600.81;;;9.08
81657;BMP280;71067;51.482;-0.580;2023-12-07T11:22:12;100624.13;;;9.16
81657;BMP280;71067;51.482;-0.580;2023-12-07T11:24:47;100618.66;;;9.19
81657;BMP280;71067;51.482;-0.580;2023-12-07T11:27:16;100615.13;;;9.20
81657;BMP280;71067;51.482;-0.580;2023-12-07T11:29:42;100615.78;;;9.22
81657;BMP280;71067;51.482;-0.580;2023-12-07T11:32:07;100609.66;;;9.23
81657;BMP280;71067;51.482;-0.580;2023-12-07T11:34:36;100594.16;;;9.23
81657;BMP280;71067;51.482;-0.580;2023-12-07T11:37:02;100593.66;;;9.20
81657;BMP280;71067;51.482;-0.580;2023-12-07T11:39:29;100586.41;;;9.23
81657;BMP280;71067;51.482;-0.580;2023-12-07T11:41:54;100582.50;;;9.19
81657;BMP280;71067;51.482;-0.580;2023-12-07T11:44:24;100575.41;;;9.21
81657;BMP280;71067;51.482;-0.580;2023-12-07T11:46:49;100550.22;;;9.15
81657;BMP280;71067;51.482;-0.580;2023-12-07T11:49:15;100542.47;;;9.15
81657;BMP280;71067;51.482;-0.580;2023-12-07T11:51:41;100543.94;;;9.18
81657;BMP280;71067;51.482;-0.580;2023-12-07T11:54:06;100547.00;;;9.21
81657;BMP280;71067;51.482;-0.580;2023-12-07T11:56:35;100541.19;;;9.19
81657;BMP280;71067;51.482;-0.580;2023-12-07T11:59:00;100539.44;;;9.20
81657;BMP280;71067;51.482;-0.580;2023-12-07T12:01:26;100538.59;;;9.19
81657;BMP280;71067;51.482;-0.580;2023-12-07T12:03:53;100528.94;;;9.21
81657;BMP280;71067;51.482;-0.580;2023-12-07T12:06:18;100506.63;;;9.12
81657;BMP280;71067;51.482;-0.580;2023-12-07T12:08:44;100514.25;;;9.22
81657;BMP280;71067;51.482;-0.580;2023-12-07T12:11:10;100521.03;;;9.23
81657;BMP280;71067;51.482;-0.580;2023-12-07T12:13:36;100511.69;;;9.22
81657;BMP280;71067;51.482;-0.580;2023-12-07T12:16:02;100517.47;;;9.24
81657;BMP280;71067;51.482;-0.580;2023-12-07T12:18:28;100508.28;;;9.21
81657;BMP280;71067;51.482;-0.580;2023-12-07T12:20:54;100495.00;;;9.16
81657;BMP280;71067;51.482;-0.580;2023-12-07T12:23:20;100504.22;;;9.19
81657;BMP280;71067;51.482;-0.580;2023-12-07T12:25:45;100500.69;;;9.20
81657;BMP280;71067;51.482;-0.580;2023-12-07T12:28:11;100482.41;;;9.13
81657;BMP280;71067;51.482;-0.580;2023-12-07T12:30:40;100487.63;;;9.21
81657;BMP280;71067;51.482;-0.580;2023-12-07T12:33:05;100482.63;;;9.20
81657;BMP280;71067;51.482;-0.580;2023-12-07T12:35:31;100480.31;;;9.17
81657;BMP280;71067;51.482;-0.580;2023-12-07T12:37:57;100478.56;;;9.17
81657;BMP280;71067;51.482;-0.580;2023-12-07T12:40:23;100470.97;;;9.16
81657;BMP280;71067;51.482;-0.580;2023-12-07T12:42:50;100456.59;;;9.13
81657;BMP280;71067;51.482;-0.580;2023-12-07T12:45:17;100444.44;;;9.06
81657;BMP280;71067;51.482;-0.580;2023-12-07T12:47:44;100438.84;;;9.10
81657;BMP280;71067;51.482;-0.580;2023-12-07T12:50:10;100433.97;;;9.07
81657;BMP280;71067;51.482;-0.580;2023-12-07T12:52:36;100418.50;;;9.07
81657;BMP280;71067;51.482;-0.580;2023-12-07T12:55:07;100398.75;;;8.98
81657;BMP280;71067;51.482;-0.580;2023-12-07T12:57:33;100397.66;;;9.01
81657;BMP280;71067;51.482;-0.580;2023-12-07T13:00:00;100392.47;;;9.01
81657;BMP280;71067;51.482;-0.580;2023-12-07T13:02:25;100381.19;;;8.94
81657;BMP280;71067;51.482;-0.580;2023-12-07T13:04:51;100382.16;;;9.01
81657;BMP280;71067;51.482;-0.580;2023-12-07T13:07:16;100388.00;;;9.03
81657;BMP280;71067;51.482;-0.580;2023-12-07T13:09:41;100369.56;;;8.98
81657;BMP280;71067;51.482;-0.580;2023-12-07T13:12:08;100360.84;;;8.91
81657;BMP280;71067;51.482;-0.580;2023-12-07T13:14:34;100371.16;;;8.91
81657;BMP280;71067;51.482;-0.580;2023-12-07T13:17:01;100351.78;;;8.87
81657;BMP280;71067;51.482;-0.580;2023-12-07T13:19:26;100351.50;;;8.90
81657;BMP280;71067;51.482;-0.580;2023-12-07T13:21:52;100345.34;;;8.91
81657;BMP280;71067;51.482;-0.580;2023-12-07T13:24:17;100343.75;;;8.90
81657;BMP280;71067;51.482;-0.580;2023-12-07T13:26:42;100344.69;;;8.89
81657;BMP280;71067;51.482;-0.580;2023-12-07T13:29:08;100340.47;;;8.88
81657;BMP280;71067;51.482;-0.580;2023-12-07T13:31:34;100334.06;;;8.84
81657;BMP280;71067;51.482;-0.580;2023-12-07T13:34:02;100321.16;;;8.84
81657;BMP280;71067;51.482;-0.580;2023-12-07T13:36:27;100327.25;;;8.83
81657;BMP280;71067;51.482;-0.580;2023-12-07T13:38:55;100321.44;;;8.81
81657;BMP280;71067;51.482;-0.580;2023-12-07T13:41:20;100318.88;;;8.81
81657;BMP280;71067;51.482;-0.580;2023-12-07T13:43:47;100305.44;;;8.77
81657;BMP280;71067;51.482;-0.580;2023-12-07T13:46:13;100296.09;;;8.76
81657;BMP280;71067;51.482;-0.580;2023-12-07T13:48:39;100283.50;;;8.65
81657;BMP280;71067;51.482;-0.580;2023-12-07T13:51:05;100279.63;;;8.69
81657;BMP280;71067;51.482;-0.580;2023-12-07T13:53:31;100266.06;;;8.67